sensor_id;sensor_type;location;lat;lon;timestamp;temperature;humidity
27200;DHT22;14714;48.106;11.546;2024-02-21T00:00:29;4.50;99.90
27200;DHT22;14714;48.106;11.546;2024-02-21T00:02:56;4.50;99.90
27200;DHT22;14714;48.106;11.546;2024-02-21T00:05:26;4.60;99.90
27200;DHT22;14714;48.106;11.546;2024-02-21T00:07:53;4.60;99.90
27200;DHT22;14714;48.106;11.546;2024-02-21T00:10:20;4.60;99.90
27200;DHT22;14714;48.106;11.546;2024-02-21T00:12:47;4.60;99.90
27200;DHT22;14714;48.106;11.546;2024-02-21T00:15:14;4.60;99.90
27200;DHT22;14714;48.106;11.546;2024-02-21T00:17:42;4.70;99.90
27200;DHT22;14714;48.106;11.546;2024-02-21T00:20:09;4.70;99.90
27200;DHT22;14714;48.106;11.546;2024-02-21T00:22:37;4.70;99.90
27200;DHT22;14714;48.106;11.546;2024-02-21T00:25:04;4.70;99.90
27200;DHT22;14714;48.106;11.546;2024-02-21T00:27:31;4.70;99.90
27200;DHT22;14714;48.106;11.546;2024-02-21T00:29:59;4.80;99.90
27200;DHT22;14714;48.106;11.546;2024-02-21T00:32:25;4.80;99.90
27200;DHT22;14714;48.106;11.546;2024-02-21T00:34:52;4.70;99.90
27200;DHT22;14714;48.106;11.546;2024-02-21T00:37:19;4.70;99.90
27200;DHT22;14714;48.106;11.546;2024-02-21T00:39:46;4.70;99.90
27200;DHT22;14714;48.106;11.546;2024-02-21T00:42:13;4.70;99.90
27200;DHT22;14714;48.106;11.546;2024-02-21T00:44:40;4.70;99.90
27200;DHT22;14714;48.106;11.546;2024-02-21T00:47:07;4.80;99.90
27200;DHT22;14714;48.106;11.546;2024-02-21T00:49:34;4.70;99.90
27200;DHT22;14714;48.106;11.546;2024-02-21T00:52:00;4.70;99.90
27200;DHT22;14714;48.106;11.546;2024-02-21T00:54:27;4.70;99.90
27200;DHT22;14714;48.106;11.546;2024-02-21T00:57:06;4.70;99.90
27200;DHT22;14714;48.106;11.546;2024-02-21T00:59:33;4.70;99.90
27200;DHT22;14714;48.106;11.546;2024-02-21T01:01:59;4.70;99.90
27200;DHT22;14714;48.106;11.546;2024-02-21T01:04:26;4.70;99.90
27200;DHT22;14714;48.106;11.546;2024-02-21T01:06:53;4.80;99.90
27200;DHT22;14714;48.106;11.546;2024-02-21T01:09:20;4.80;99.90
27200;DHT22;14714;48.106;11.546;2024-02-21T01:11:47;4.80;99.90
27200;DHT22;14714;48.106;11.546;2024-02-21T01:14:14;4.80;99.90
27200;DHT22;14714;48.106;11.546;2024-02-21T01:16:40;4.80;99.90
27200;DHT22;14714;48.106;11.546;2024-02-21T01:19:08;4.90;99.90
27200;DHT22;14714;48.106;11.546;2024-02-21T01:21:35;4.90;99.90
27200;DHT22;14714;48.106;11.546;2024-02-21T01:24:01;4.90;99.90
27200;DHT22;14714;48.106;11.546;2024-02-21T01:26:28;4.90;99.90
27200;DHT22;14714;48.106;11.546;2024-02-21T01:28:55;4.90;99.90
27200;DHT22;14714;48.106;11.546;2024-02-21T01:31:22;5.00;99.90
27200;DHT22;14714;48.106;11.546;2024-02-21T01:33:49;5.00;99.90
27200;DHT22;14714;48.106;11.546;2024-02-21T01:36:16;5.00;99.90
27200;DHT22;14714;48.106;11.546;2024-02-21T01:38:43;5.00;99.90
27200;DHT22;14714;48.106;11.546;2024-02-21T01:41:09;5.00;99.90
27200;DHT22;14714;48.106;11.546;2024-02-21T01:43:36;5.00;99.90
27200;DHT22;14714;48.106;11.546;2024-02-21T01:46:03;5.00;99.90
27200;DHT22;14714;48.106;11.546;2024-02-21T01:48:30;5.00;99.90
27200;DHT22;14714;48.106;11.546;2024-02-21T01:50:57;5.00;99.90
27200;DHT22;14714;48.106;11.546;2024-02-21T01:53:34;5.00;99.90
27200;DHT22;14714;48.106;11.546;2024-02-21T01:56:02;5.10;99.90
27200;DHT22;14714;48.106;11.546;2024-02-21T01:58:29;5.10;99.90
27200;DHT22;14714;48.106;11.546;2024-02-21T02:00:57;5.10;99.90
27200;DHT22;14714;48.106;11.546;2024-02-21T02:03:24;5.10;99.90
27200;DHT22;14714;48.106;11.546;2024-02-21T02:05:52;5.10;99.90
27200;DHT22;14714;48.106;11.546;2024-02-21T02:08:19;5.10;99.90
27200;DHT22;14714;48.106;11.546;2024-02-21T02:10:49;5.20;99.90
27200;DHT22;14714;48.106;11.546;2024-02-21T02:13:16;5.20;99.90
27200;DHT22;14714;48.106;11.546;2024-02-21T02:15:47;5.20;99.90
27200;DHT22;14714;48.106;11.546;2024-02-21T02:18:15;5.20;99.90
27200;DHT22;14714;48.106;11.546;2024-02-21T02:20:44;5.20;99.90
27200;DHT22;14714;48.106;11.546;2024-02-21T02:25:46;5.20;99.90
27200;DHT22;14714;48.106;11.546;2024-02-21T02:28:16;5.20;99.90
27200;DHT22;14714;48.106;11.546;2024-02-21T02:30:43;5.20;99.90
27200;DHT22;14714;48.106;11.546;2024-02-21T02:33:10;5.20;99.90
27200;DHT22;14714;48.106;11.546;2024-02-21T02:35:37;5.20;99.90
27200;DHT22;14714;48.106;11.546;2024-02-21T02:38:04;5.20;99.90
27200;DHT22;14714;48.106;11.546;2024-02-21T02:40:34;5.20;99.90
27200;DHT22;14714;48.106;11.546;2024-02-21T02:43:01;5.20;99.90
27200;DHT22;14714;48.106;11.546;2024-02-21T02:45:30;5.20;99.90
27200;DHT22;14714;48.106;11.546;2024-02-21T02:47:58;5.20;99.90
27200;DHT22;14714;48.106;11.546;2024-02-21T02:50:26;5.20;99.90
27200;DHT22;14714;48.106;11.546;2024-02-21T02:52:54;5.10;99.90
27200;DHT22;14714;48.106;11.546;2024-02-21T02:55:21;5.10;99.90
27200;DHT22;14714;48.106;11.546;2024-02-21T02:57:48;5.10;99.90
27200;DHT22;14714;48.106;11.546;2024-02-21T03:00:15;5.10;99.90
27200;DHT22;14714;48.106;11.546;2024-02-21T03:02:43;5.10;99.90
27200;DHT22;14714;48.106;11.546;2024-02-21T03:07:40;5.10;99.90
27200;DHT22;14714;48.106;11.546;2024-02-21T03:10:08;5.10;99.90
27200;DHT22;14714;48.106;11.546;2024-02-21T03:12:35;5.00;99.90
27200;DHT22;14714;48.106;11.546;2024-02-21T03:15:02;5.00;99.90
27200;DHT22;14714;48.106;11.546;2024-02-21T03:17:29;5.00;99.90
27200;DHT22;14714;48.106;11.546;2024-02-21T03:19:57;5.00;99.90
27200;DHT22;14714;48.106;11.546;2024-02-21T03:22:24;5.00;99.90
27200;DHT22;14714;48.106;11.546;2024-02-21T03:24:50;5.00;99.90
27200;DHT22;14714;48.106;11.546;2024-02-21T03:27:17;5.00;99.90
27200;DHT22;14714;48.106;11.546;2024-02-21T03:29:44;5.00;99.90
27200;DHT22;14714;48.106;11.546;2024-02-21T03:32:11;5.00;99.90
27200;DHT22;14714;48.106;11.546;2024-02-21T03:34:38;5.00;99.90
27200;DHT22;14714;48.106;11.546;2024-02-21T03:37:05;5.00;99.90
27200;DHT22;14714;48.106;11.546;2024-02-21T03:39:32;5.00;99.90
27200;DHT22;14714;48.106;11.546;2024-02-21T03:41:59;5.00;99.90
27200;DHT22;14714;48.106;11.546;2024-02-21T03:44:31;5.00;99.90
27200;DHT22;14714;48.106;11.546;2024-02-21T03:47:02;5.00;99.90
27200;DHT22;14714;48.106;11.546;2024-02-21T03:49:29;5.00;99.90
27200;DHT22;14714;48.106;11.546;2024-02-21T03:51:56;5.00;99.90
27200;DHT22;14714;48.106;11.546;2024-02-21T03:54:23;5.00;99.90
27200;DHT22;14714;48.106;11.546;2024-02-21T03:56:50;5.00;99.90
27200;DHT22;14714;48.106;11.546;2024-02-21T03:59:17;5.10;99.90
27200;DHT22;14714;48.106;11.546;2024-02-21T04:01:45;5.00;99.90
27200;DHT22;14714;48.106;11.546;2024-02-21T04:04:11;5.10;99.90
27200;DHT22;14714;48.106;11.546;2024-02-21T04:06:51;5.10;99.90
27200;DHT22;14714;48.106;11.546;2024-02-21T04:09:18;5.10;99.90
27200;DHT22;14714;48.106;11.546;2024-02-21T04:11:46;5.10;99.90
27200;DHT22;14714;48.106;11.546;2024-02-21T04:14:12;5.10;99.90
27200;DHT22;14714;48.106;11.546;2024-02-21T04:16:40;5.10;99.90
27200;DHT22;14714;48.106;11.546;2024-02-21T04:19:07;5.10;99.90
27200;DHT22;14714;48.106;11.546;2024-02-21T04:21:35;5.10;99.90
27200;DHT22;14714;48.106;11.546;2024-02-21T04:24:02;5.10;99.90
27200;DHT22;14714;48.106;11.546;2024-02-21T04:26:33;5.10;99.90
27200;DHT22;14714;48.106;11.546;2024-02-21T04:29:00;5.10;99.90
27200;DHT22;14714;48.106;11.546;2024-02-21T04:31:28;5.00;99.90
27200;DHT22;14714;48.106;11.546;2024-02-21T04:33:56;5.00;99.90
27200;DHT22;14714;48.106;11.546;2024-02-21T04:36:22;5.00;99.90
27200;DHT22;14714;48.106;11.546;2024-02-21T04:38:50;4.90;99.90
27200;DHT22;14714;48.106;11.546;2024-02-21T04:41:17;4.90;99.90
27200;DHT22;14714;48.106;11.546;2024-02-21T04:43:46;4.80;99.90
27200;DHT22;14714;48.106;11.546;2024-02-21T04:46:14;4.80;99.90
27200;DHT22;14714;48.106;11.546;2024-02-21T04:48:42;4.80;99.90
27200;DHT22;14714;48.106;11.546;2024-02-21T04:51:09;4.70;99.90
27200;DHT22;14714;48.106;11.546;2024-02-21T04:53:36;4.70;99.90
27200;DHT22;14714;48.106;11.546;2024-02-21T04:56:03;4.60;99.90
27200;DHT22;14714;48.106;11.546;2024-02-21T04:58:30;4.50;99.90
27200;DHT22;14714;48.106;11.546;2024-02-21T05:00:56;4.40;99.90
27200;DHT22;14714;48.106;11.546;2024-02-21T05:03:24;4.40;99.90
27200;DHT22;14714;48.106;11.546;2024-02-21T05:05:51;4.30;99.90
27200;DHT22;14714;48.106;11.546;2024-02-21T05:08:18;4.20;99.90
27200;DHT22;14714;48.106;11.546;2024-02-21T05:10:45;4.10;99.90
27200;DHT22;14714;48.106;11.546;2024-02-21T05:13:12;4.10;99.90
27200;DHT22;14714;48.106;11.546;2024-02-21T05:15:39;4.00;99.90
27200;DHT22;14714;48.106;11.546;2024-02-21T05:18:06;4.00;99.90
27200;DHT22;14714;48.106;11.546;2024-02-21T05:20:33;3.90;99.90
27200;DHT22;14714;48.106;11.546;2024-02-21T05:23:00;3.80;99.90
27200;DHT22;14714;48.106;11.546;2024-02-21T05:25:27;3.80;99.90
27200;DHT22;14714;48.106;11.546;2024-02-21T05:27:55;3.80;99.90
27200;DHT22;14714;48.106;11.546;2024-02-21T05:30:22;3.80;99.90
27200;DHT22;14714;48.106;11.546;2024-02-21T05:32:49;3.70;99.90
27200;DHT22;14714;48.106;11.546;2024-02-21T05:35:16;3.70;99.90
27200;DHT22;14714;48.106;11.546;2024-02-21T05:37:43;3.70;99.90
27200;DHT22;14714;48.106;11.546;2024-02-21T05:40:10;3.70;99.90
27200;DHT22;14714;48.106;11.546;2024-02-21T05:42:39;3.70;99.90
27200;DHT22;14714;48.106;11.546;2024-02-21T05:45:06;3.70;99.90
27200;DHT22;14714;48.106;11.546;2024-02-21T05:47:34;3.70;99.90
27200;DHT22;14714;48.106;11.546;2024-02-21T05:50:01;3.70;99.90
27200;DHT22;14714;48.106;11.546;2024-02-21T05:52:28;3.70;99.90
27200;DHT22;14714;48.106;11.546;2024-02-21T05:54:54;3.70;99.90
27200;DHT22;14714;48.106;11.546;2024-02-21T05:57:21;3.70;99.90
27200;DHT22;14714;48.106;11.546;2024-02-21T05:59:48;3.80;99.90
27200;DHT22;14714;48.106;11.546;2024-02-21T06:02:15;3.80;99.90
27200;DHT22;14714;48.106;11.546;2024-02-21T06:04:42;3.80;99.90
27200;DHT22;14714;48.106;11.546;2024-02-21T06:07:13;3.70;99.90
27200;DHT22;14714;48.106;11.546;2024-02-21T06:09:40;3.70;99.90
27200;DHT22;14714;48.106;11.546;2024-02-21T06:12:07;3.70;99.90
27200;DHT22;14714;48.106;11.546;2024-02-21T06:14:34;3.70;99.90
27200;DHT22;14714;48.106;11.546;2024-02-21T06:17:00;3.70;99.90
27200;DHT22;14714;48.106;11.546;2024-02-21T06:19:27;3.70;99.90
27200;DHT22;14714;48.106;11.546;2024-02-21T06:21:54;3.70;99.90
27200;DHT22;14714;48.106;11.546;2024-02-21T06:24:21;3.70;99.90
27200;DHT22;14714;48.106;11.546;2024-02-21T06:26:48;3.70;99.90
27200;DHT22;14714;48.106;11.546;2024-02-21T06:29:15;3.80;99.90
27200;DHT22;14714;48.106;11.546;2024-02-21T06:31:42;3.80;99.90
27200;DHT22;14714;48.106;11.546;2024-02-21T06:34:09;3.90;99.90
27200;DHT22;14714;48.106;11.546;2024-02-21T06:36:36;4.00;99.90
27200;DHT22;14714;48.106;11.546;2024-02-21T06:39:02;4.00;99.90
27200;DHT22;14714;48.106;11.546;2024-02-21T06:41:34;4.10;99.90
27200;DHT22;14714;48.106;11.546;2024-02-21T06:44:02;4.10;99.90
27200;DHT22;14714;48.106;11.546;2024-02-21T06:46:29;4.20;99.90
27200;DHT22;14714;48.106;11.546;2024-02-21T06:48:56;4.30;99.90
27200;DHT22;14714;48.106;11.546;2024-02-21T06:51:24;4.30;99.90
27200;DHT22;14714;48.106;11.546;2024-02-21T06:53:54;4.40;99.90
27200;DHT22;14714;48.106;11.546;2024-02-21T06:56:23;4.60;99.90
27200;DHT22;14714;48.106;11.546;2024-02-21T06:58:53;4.70;99.90
27200;DHT22;14714;48.106;11.546;2024-02-21T07:01:21;4.70;99.90
27200;DHT22;14714;48.106;11.546;2024-02-21T07:03:48;4.80;99.90
27200;DHT22;14714;48.106;11.546;2024-02-21T07:06:15;4.80;99.90
27200;DHT22;14714;48.106;11.546;2024-02-21T07:08:42;4.90;99.90
27200;DHT22;14714;48.106;11.546;2024-02-21T07:11:08;4.90;99.90
27200;DHT22;14714;48.106;11.546;2024-02-21T07:13:36;5.00;99.90
27200;DHT22;14714;48.106;11.546;2024-02-21T07:16:03;5.10;99.90
27200;DHT22;14714;48.106;11.546;2024-02-21T07:18:30;5.10;99.90
27200;DHT22;14714;48.106;11.546;2024-02-21T07:20:56;5.20;99.90
27200;DHT22;14714;48.106;11.546;2024-02-21T07:23:23;5.40;99.90
27200;DHT22;14714;48.106;11.546;2024-02-21T07:25:50;5.40;99.90
27200;DHT22;14714;48.106;11.546;2024-02-21T07:28:17;5.50;99.90
27200;DHT22;14714;48.106;11.546;2024-02-21T07:30:44;5.70;99.90
27200;DHT22;14714;48.106;11.546;2024-02-21T07:33:11;5.80;99.90
27200;DHT22;14714;48.106;11.546;2024-02-21T07:35:38;5.80;99.90
27200;DHT22;14714;48.106;11.546;2024-02-21T07:38:07;5.90;99.90
27200;DHT22;14714;48.106;11.546;2024-02-21T07:40:39;5.90;99.90
27200;DHT22;14714;48.106;11.546;2024-02-21T07:43:06;6.00;99.90
27200;DHT22;14714;48.106;11.546;2024-02-21T07:45:33;6.00;99.90
27200;DHT22;14714;48.106;11.546;2024-02-21T07:48:00;6.00;99.90
27200;DHT22;14714;48.106;11.546;2024-02-21T07:50:27;6.00;99.90
27200;DHT22;14714;48.106;11.546;2024-02-21T07:52:53;6.10;99.90
27200;DHT22;14714;48.106;11.546;2024-02-21T07:55:20;6.10;99.90
27200;DHT22;14714;48.106;11.546;2024-02-21T07:57:47;6.30;99.90
27200;DHT22;14714;48.106;11.546;2024-02-21T08:00:15;7.00;99.90
27200;DHT22;14714;48.106;11.546;2024-02-21T08:02:47;8.00;99.90
27200;DHT22;14714;48.106;11.546;2024-02-21T08:05:14;9.50;99.90
27200;DHT22;14714;48.106;11.546;2024-02-21T08:07:41;10.30;99.90
27200;DHT22;14714;48.106;11.546;2024-02-21T08:10:08;11.00;99.90
27200;DHT22;14714;48.106;11.546;2024-02-21T08:12:35;11.80;97.20
27200;DHT22;14714;48.106;11.546;2024-02-21T08:15:03;12.00;94.10
27200;DHT22;14714;48.106;11.546;2024-02-21T08:17:35;11.60;93.00
27200;DHT22;14714;48.106;11.546;2024-02-21T08:20:03;11.60;94.00
27200;DHT22;14714;48.106;11.546;2024-02-21T08:22:31;12.10;93.20
27200;DHT22;14714;48.106;11.546;2024-02-21T08:24:58;12.70;92.50
27200;DHT22;14714;48.106;11.546;2024-02-21T08:27:26;13.10;90.80
27200;DHT22;14714;48.106;11.546;2024-02-21T08:29:53;13.80;86.80
27200;DHT22;14714;48.106;11.546;2024-02-21T08:32:19;14.30;84.20
27200;DHT22;14714;48.106;11.546;2024-02-21T08:34:46;14.80;81.00
27200;DHT22;14714;48.106;11.546;2024-02-21T08:37:14;15.00;76.90
27200;DHT22;14714;48.106;11.546;2024-02-21T08:39:43;16.00;75.00
27200;DHT22;14714;48.106;11.546;2024-02-21T08:42:09;17.50;69.50
27200;DHT22;14714;48.106;11.546;2024-02-21T08:44:39;19.20;62.20
27200;DHT22;14714;48.106;11.546;2024-02-21T08:47:06;20.40;54.30
27200;DHT22;14714;48.106;11.546;2024-02-21T08:49:36;20.80;50.60
27200;DHT22;14714;48.106;11.546;2024-02-21T08:52:04;20.80;48.10
27200;DHT22;14714;48.106;11.546;2024-02-21T08:54:32;20.30;47.80
27200;DHT22;14714;48.106;11.546;2024-02-21T08:57:02;20.00;49.10
27200;DHT22;14714;48.106;11.546;2024-02-21T08:59:30;20.40;47.90
27200;DHT22;14714;48.106;11.546;2024-02-21T09:01:57;20.80;47.30
27200;DHT22;14714;48.106;11.546;2024-02-21T09:04:24;21.40;46.20
27200;DHT22;14714;48.106;11.546;2024-02-21T09:06:51;21.60;44.00
27200;DHT22;14714;48.106;11.546;2024-02-21T09:09:19;21.50;43.90
27200;DHT22;14714;48.106;11.546;2024-02-21T09:11:46;21.40;42.50
27200;DHT22;14714;48.106;11.546;2024-02-21T09:14:13;21.60;44.60
27200;DHT22;14714;48.106;11.546;2024-02-21T09:16:40;22.20;43.80
27200;DHT22;14714;48.106;11.546;2024-02-21T09:19:07;22.80;41.10
27200;DHT22;14714;48.106;11.546;2024-02-21T09:21:37;23.40;40.60
27200;DHT22;14714;48.106;11.546;2024-02-21T09:24:05;24.00;39.30
27200;DHT22;14714;48.106;11.546;2024-02-21T09:26:32;24.70;38.30
27200;DHT22;14714;48.106;11.546;2024-02-21T09:29:00;25.30;37.80
27200;DHT22;14714;48.106;11.546;2024-02-21T09:31:27;25.90;36.80
27200;DHT22;14714;48.106;11.546;2024-02-21T09:33:53;26.30;35.10
27200;DHT22;14714;48.106;11.546;2024-02-21T09:36:20;26.80;33.50
27200;DHT22;14714;48.106;11.546;2024-02-21T09:38:47;27.20;31.70
27200;DHT22;14714;48.106;11.546;2024-02-21T09:41:18;27.10;32.70
27200;DHT22;14714;48.106;11.546;2024-02-21T09:43:51;27.10;31.00
27200;DHT22;14714;48.106;11.546;2024-02-21T09:46:24;26.70;30.90
27200;DHT22;14714;48.106;11.546;2024-02-21T09:49:25;26.20;32.00
27200;DHT22;14714;48.106;11.546;2024-02-21T09:51:57;25.20;33.90
27200;DHT22;14714;48.106;11.546;2024-02-21T09:54:27;24.00;34.40
27200;DHT22;14714;48.106;11.546;2024-02-21T09:56:54;23.20;36.70
27200;DHT22;14714;48.106;11.546;2024-02-21T09:59:21;22.50;37.90
27200;DHT22;14714;48.106;11.546;2024-02-21T10:01:48;21.70;38.10
27200;DHT22;14714;48.106;11.546;2024-02-21T10:04:17;20.60;40.00
27200;DHT22;14714;48.106;11.546;2024-02-21T10:06:45;20.00;41.80
27200;DHT22;14714;48.106;11.546;2024-02-21T10:11:50;18.90;44.50
27200;DHT22;14714;48.106;11.546;2024-02-21T10:14:18;18.50;45.00
27200;DHT22;14714;48.106;11.546;2024-02-21T10:16:55;18.30;44.40
27200;DHT22;14714;48.106;11.546;2024-02-21T10:19:23;18.20;45.40
27200;DHT22;14714;48.106;11.546;2024-02-21T10:22:09;18.10;45.60
27200;DHT22;14714;48.106;11.546;2024-02-21T10:24:37;18.00;45.10
27200;DHT22;14714;48.106;11.546;2024-02-21T10:27:07;17.90;47.00
27200;DHT22;14714;48.106;11.546;2024-02-21T10:29:40;17.80;45.60
27200;DHT22;14714;48.106;11.546;2024-02-21T10:32:10;17.50;46.20
27200;DHT22;14714;48.106;11.546;2024-02-21T10:34:39;17.40;46.10
27200;DHT22;14714;48.106;11.546;2024-02-21T10:37:08;17.10;47.20
27200;DHT22;14714;48.106;11.546;2024-02-21T10:39:39;16.80;48.70
27200;DHT22;14714;48.106;11.546;2024-02-21T10:42:06;16.50;49.30
27200;DHT22;14714;48.106;11.546;2024-02-21T10:44:37;16.40;49.10
27200;DHT22;14714;48.106;11.546;2024-02-21T10:47:08;16.40;49.30
27200;DHT22;14714;48.106;11.546;2024-02-21T10:49:40;16.40;48.30
27200;DHT22;14714;48.106;11.546;2024-02-21T10:57:38;16.40;48.60
27200;DHT22;14714;48.106;11.546;2024-02-21T11:00:06;16.50;49.50
27200;DHT22;14714;48.106;11.546;2024-02-21T11:02:39;16.60;48.00
27200;DHT22;14714;48.106;11.546;2024-02-21T11:05:07;16.70;47.50
27200;DHT22;14714;48.106;11.546;2024-02-21T11:07:37;16.80;45.60
27200;DHT22;14714;48.106;11.546;2024-02-21T11:10:04;16.60;46.60
27200;DHT22;14714;48.106;11.546;2024-02-21T11:12:33;16.50;47.40
27200;DHT22;14714;48.106;11.546;2024-02-21T11:15:07;16.40;46.80
27200;DHT22;14714;48.106;11.546;2024-02-21T11:17:34;16.30;47.10
27200;DHT22;14714;48.106;11.546;2024-02-21T11:20:15;16.30;46.00
27200;DHT22;14714;48.106;11.546;2024-02-21T11:22:43;16.30;46.80
27200;DHT22;14714;48.106;11.546;2024-02-21T11:25:10;16.50;43.90
27200;DHT22;14714;48.106;11.546;2024-02-21T11:27:46;16.50;46.70
27200;DHT22;14714;48.106;11.546;2024-02-21T11:30:13;16.60;45.60
27200;DHT22;14714;48.106;11.546;2024-02-21T11:32:41;16.80;46.20
27200;DHT22;14714;48.106;11.546;2024-02-21T11:35:08;17.00;46.10
27200;DHT22;14714;48.106;11.546;2024-02-21T11:37:45;17.20;44.20
27200;DHT22;14714;48.106;11.546;2024-02-21T11:40:13;17.20;43.50
27200;DHT22;14714;48.106;11.546;2024-02-21T11:42:40;17.10;42.70
27200;DHT22;14714;48.106;11.546;2024-02-21T11:45:07;16.90;44.90
27200;DHT22;14714;48.106;11.546;2024-02-21T11:47:36;16.70;43.70
27200;DHT22;14714;48.106;11.546;2024-02-21T11:50:10;16.60;45.40
27200;DHT22;14714;48.106;11.546;2024-02-21T11:52:39;16.50;46.00
27200;DHT22;14714;48.106;11.546;2024-02-21T11:55:06;16.50;45.10
27200;DHT22;14714;48.106;11.546;2024-02-21T11:57:37;16.60;46.70
27200;DHT22;14714;48.106;11.546;2024-02-21T12:00:15;16.70;45.50
27200;DHT22;14714;48.106;11.546;2024-02-21T12:02:43;16.80;46.30
27200;DHT22;14714;48.106;11.546;2024-02-21T12:05:10;16.80;44.80
27200;DHT22;14714;48.106;11.546;2024-02-21T12:07:38;16.80;44.20
27200;DHT22;14714;48.106;11.546;2024-02-21T12:10:11;16.80;43.00
27200;DHT22;14714;48.106;11.546;2024-02-21T12:12:39;16.70;43.30
27200;DHT22;14714;48.106;11.546;2024-02-21T12:15:07;16.60;44.10
27200;DHT22;14714;48.106;11.546;2024-02-21T12:17:35;16.50;43.10
27200;DHT22;14714;48.106;11.546;2024-02-21T12:20:06;16.50;44.50
27200;DHT22;14714;48.106;11.546;2024-02-21T12:22:36;16.50;43.30
27200;DHT22;14714;48.106;11.546;2024-02-21T12:25:04;16.60;41.90
27200;DHT22;14714;48.106;11.546;2024-02-21T12:27:42;16.60;42.70
27200;DHT22;14714;48.106;11.546;2024-02-21T12:30:09;16.40;43.70
27200;DHT22;14714;48.106;11.546;2024-02-21T12:32:37;16.40;42.10
27200;DHT22;14714;48.106;11.546;2024-02-21T12:35:04;16.40;43.60
27200;DHT22;14714;48.106;11.546;2024-02-21T12:37:31;16.40;42.80
27200;DHT22;14714;48.106;11.546;2024-02-21T12:40:01;16.40;43.00
27200;DHT22;14714;48.106;11.546;2024-02-21T12:42:27;16.20;42.50
27200;DHT22;14714;48.106;11.546;2024-02-21T12:44:55;15.90;43.00
27200;DHT22;14714;48.106;11.546;2024-02-21T12:47:22;15.80;43.20
27200;DHT22;14714;48.106;11.546;2024-02-21T12:49:51;15.80;41.80
27200;DHT22;14714;48.106;11.546;2024-02-21T12:52:18;15.60;41.80
27200;DHT22;14714;48.106;11.546;2024-02-21T12:54:46;15.50;42.50
27200;DHT22;14714;48.106;11.546;2024-02-21T12:57:12;15.40;43.30
27200;DHT22;14714;48.106;11.546;2024-02-21T12:59:39;15.30;44.40
27200;DHT22;14714;48.106;11.546;2024-02-21T13:02:06;15.30;44.70
27200;DHT22;14714;48.106;11.546;2024-02-21T13:04:33;15.20;44.30
27200;DHT22;14714;48.106;11.546;2024-02-21T13:07:03;15.10;44.30
27200;DHT22;14714;48.106;11.546;2024-02-21T13:09:30;15.10;41.90
27200;DHT22;14714;48.106;11.546;2024-02-21T13:11:56;15.00;43.30
27200;DHT22;14714;48.106;11.546;2024-02-21T13:14:23;15.00;42.40
27200;DHT22;14714;48.106;11.546;2024-02-21T13:16:51;15.00;43.90
27200;DHT22;14714;48.106;11.546;2024-02-21T13:19:18;15.00;43.50
27200;DHT22;14714;48.106;11.546;2024-02-21T13:21:45;15.00;45.50
27200;DHT22;14714;48.106;11.546;2024-02-21T13:24:12;15.00;43.40
27200;DHT22;14714;48.106;11.546;2024-02-21T13:26:39;15.00;44.80
27200;DHT22;14714;48.106;11.546;2024-02-21T13:29:06;15.00;44.70
27200;DHT22;14714;48.106;11.546;2024-02-21T13:31:33;15.00;45.20
27200;DHT22;14714;48.106;11.546;2024-02-21T13:34:00;15.00;43.50
27200;DHT22;14714;48.106;11.546;2024-02-21T13:36:27;15.00;45.60
27200;DHT22;14714;48.106;11.546;2024-02-21T13:38:54;14.90;43.90
27200;DHT22;14714;48.106;11.546;2024-02-21T13:41:20;15.00;43.20
27200;DHT22;14714;48.106;11.546;2024-02-21T13:43:49;14.90;43.90
27200;DHT22;14714;48.106;11.546;2024-02-21T13:46:16;14.90;44.90
27200;DHT22;14714;48.106;11.546;2024-02-21T13:48:43;15.00;45.20
27200;DHT22;14714;48.106;11.546;2024-02-21T13:51:10;15.00;45.20
27200;DHT22;14714;48.106;11.546;2024-02-21T13:53:38;14.90;44.70
27200;DHT22;14714;48.106;11.546;2024-02-21T13:56:05;14.90;44.80
27200;DHT22;14714;48.106;11.546;2024-02-21T13:58:32;14.90;44.50
27200;DHT22;14714;48.106;11.546;2024-02-21T14:00:59;14.90;45.20
27200;DHT22;14714;48.106;11.546;2024-02-21T14:03:27;14.90;45.30
27200;DHT22;14714;48.106;11.546;2024-02-21T14:05:54;14.90;43.90
27200;DHT22;14714;48.106;11.546;2024-02-21T14:08:21;14.90;43.90
27200;DHT22;14714;48.106;11.546;2024-02-21T14:10:50;14.90;43.90
27200;DHT22;14714;48.106;11.546;2024-02-21T14:13:17;14.90;45.00
27200;DHT22;14714;48.106;11.546;2024-02-21T14:15:44;14.90;45.50
27200;DHT22;14714;48.106;11.546;2024-02-21T14:18:16;14.80;44.80
27200;DHT22;14714;48.106;11.546;2024-02-21T14:20:43;14.80;45.40
27200;DHT22;14714;48.106;11.546;2024-02-21T14:23:10;14.70;45.20
27200;DHT22;14714;48.106;11.546;2024-02-21T14:25:37;14.60;44.80
27200;DHT22;14714;48.106;11.546;2024-02-21T14:28:07;14.60;46.30
27200;DHT22;14714;48.106;11.546;2024-02-21T14:30:35;14.60;45.30
27200;DHT22;14714;48.106;11.546;2024-02-21T14:33:02;14.60;46.70
27200;DHT22;14714;48.106;11.546;2024-02-21T14:35:30;14.60;46.80
27200;DHT22;14714;48.106;11.546;2024-02-21T14:37:57;14.50;47.00
27200;DHT22;14714;48.106;11.546;2024-02-21T14:40:24;14.50;46.70
27200;DHT22;14714;48.106;11.546;2024-02-21T14:42:51;14.50;46.60
27200;DHT22;14714;48.106;11.546;2024-02-21T14:45:19;14.40;46.70
27200;DHT22;14714;48.106;11.546;2024-02-21T14:47:46;14.40;47.00
27200;DHT22;14714;48.106;11.546;2024-02-21T14:50:13;14.30;46.90
27200;DHT22;14714;48.106;11.546;2024-02-21T14:52:40;14.30;48.10
27200;DHT22;14714;48.106;11.546;2024-02-21T14:55:07;14.30;47.50
27200;DHT22;14714;48.106;11.546;2024-02-21T14:57:34;14.30;48.20
27200;DHT22;14714;48.106;11.546;2024-02-21T15:00:03;14.20;46.40
27200;DHT22;14714;48.106;11.546;2024-02-21T15:02:34;14.20;46.30
27200;DHT22;14714;48.106;11.546;2024-02-21T15:05:01;14.20;46.20
27200;DHT22;14714;48.106;11.546;2024-02-21T15:07:30;14.10;47.90
27200;DHT22;14714;48.106;11.546;2024-02-21T15:09:58;14.10;47.50
27200;DHT22;14714;48.106;11.546;2024-02-21T15:12:25;14.10;47.80
27200;DHT22;14714;48.106;11.546;2024-02-21T15:14:52;14.00;49.20
27200;DHT22;14714;48.106;11.546;2024-02-21T15:17:19;14.00;48.80
27200;DHT22;14714;48.106;11.546;2024-02-21T15:19:46;13.90;49.40
27200;DHT22;14714;48.106;11.546;2024-02-21T15:22:14;13.90;49.40
27200;DHT22;14714;48.106;11.546;2024-02-21T15:24:42;13.80;50.40
27200;DHT22;14714;48.106;11.546;2024-02-21T15:27:09;13.80;49.20
27200;DHT22;14714;48.106;11.546;2024-02-21T15:29:36;13.70;48.70
27200;DHT22;14714;48.106;11.546;2024-02-21T15:32:03;13.60;50.30
27200;DHT22;14714;48.106;11.546;2024-02-21T15:34:30;13.60;50.50
27200;DHT22;14714;48.106;11.546;2024-02-21T15:36:58;13.50;50.40
27200;DHT22;14714;48.106;11.546;2024-02-21T15:39:26;13.40;50.80